sensor_id;sensor_type;location;lat;lon;timestamp;P1;durP1;ratioP1;P2;durP2;ratioP2
20391;SDS011;10355;53.688;10.078;2024-01-16T00:02:22;4.13;;;1.40;;
20391;SDS011;10355;53.688;10.078;2024-01-16T00:05:06;2.95;;;1.45;;
20391;SDS011;10355;53.688;10.078;2024-01-16T00:07:49;2.45;;;1.50;;
20391;SDS011;10355;53.688;10.078;2024-01-16T00:10:31;1.90;;;1.40;;
20391;SDS011;10355;53.688;10.078;2024-01-16T00:13:16;3.88;;;1.52;;
20391;SDS011;10355;53.688;10.078;2024-01-16T00:16:02;2.67;;;1.40;;
20391;SDS011;10355;53.688;10.078;2024-01-16T00:18:45;2.15;;;1.52;;
20391;SDS011;10355;53.688;10.078;2024-01-16T00:21:28;1.90;;;1.50;;
20391;SDS011;10355;53.688;10.078;2024-01-16T00:24:11;3.25;;;1.52;;
20391;SDS011;10355;53.688;10.078;2024-01-16T00:26:54;2.58;;;1.40;;
20391;SDS011;10355;53.688;10.078;2024-01-16T00:29:37;2.92;;;1.48;;
20391;SDS011;10355;53.688;10.078;2024-01-16T00:32:21;2.90;;;1.60;;
20391;SDS011;10355;53.688;10.078;2024-01-16T00:35:04;3.00;;;1.50;;
20391;SDS011;10355;53.688;10.078;2024-01-16T00:37:47;1.85;;;1.42;;
20391;SDS011;10355;53.688;10.078;2024-01-16T00:40:30;1.80;;;1.30;;
20391;SDS011;10355;53.688;10.078;2024-01-16T00:43:12;3.25;;;1.55;;
20391;SDS011;10355;53.688;10.078;2024-01-16T00:45:55;2.65;;;1.42;;
20391;SDS011;10355;53.688;10.078;2024-01-16T00:48:40;3.10;;;1.40;;
20391;SDS011;10355;53.688;10.078;2024-01-16T00:51:22;1.77;;;1.40;;
20391;SDS011;10355;53.688;10.078;2024-01-16T00:54:05;1.65;;;1.30;;
20391;SDS011;10355;53.688;10.078;2024-01-16T00:56:49;2.45;;;1.50;;
20391;SDS011;10355;53.688;10.078;2024-01-16T00:59:36;3.53;;;1.63;;
20391;SDS011;10355;53.688;10.078;2024-01-16T01:02:19;2.35;;;1.42;;
20391;SDS011;10355;53.688;10.078;2024-01-16T01:05:04;2.55;;;1.60;;
20391;SDS011;10355;53.688;10.078;2024-01-16T01:07:46;3.75;;;1.30;;
20391;SDS011;10355;53.688;10.078;2024-01-16T01:10:30;1.48;;;1.38;;
20391;SDS011;10355;53.688;10.078;2024-01-16T01:13:12;4.45;;;1.60;;
20391;SDS011;10355;53.688;10.078;2024-01-16T01:15:55;1.45;;;1.35;;
20391;SDS011;10355;53.688;10.078;2024-01-16T01:18:38;2.58;;;1.60;;
20391;SDS011;10355;53.688;10.078;2024-01-16T01:21:22;3.70;;;1.95;;
20391;SDS011;10355;53.688;10.078;2024-01-16T01:24:05;1.98;;;1.42;;
20391;SDS011;10355;53.688;10.078;2024-01-16T01:26:48;4.57;;;1.83;;
20391;SDS011;10355;53.688;10.078;2024-01-16T01:29:31;2.35;;;1.95;;
20391;SDS011;10355;53.688;10.078;2024-01-16T01:32:14;4.57;;;2.00;;
20391;SDS011;10355;53.688;10.078;2024-01-16T01:34:56;3.53;;;1.85;;
20391;SDS011;10355;53.688;10.078;2024-01-16T01:37:40;3.53;;;2.00;;
20391;SDS011;10355;53.688;10.078;2024-01-16T01:40:23;3.10;;;2.17;;
20391;SDS011;10355;53.688;10.078;2024-01-16T01:43:19;4.05;;;2.30;;
20391;SDS011;10355;53.688;10.078;2024-01-16T01:46:08;3.55;;;2.17;;
20391;SDS011;10355;53.688;10.078;2024-01-16T01:48:51;2.88;;;1.75;;
20391;SDS011;10355;53.688;10.078;2024-01-16T01:51:34;3.42;;;2.17;;
20391;SDS011;10355;53.688;10.078;2024-01-16T01:54:18;3.28;;;2.05;;
20391;SDS011;10355;53.688;10.078;2024-01-16T01:57:02;3.58;;;2.25;;
20391;SDS011;10355;53.688;10.078;2024-01-16T01:59:45;3.95;;;2.00;;
20391;SDS011;10355;53.688;10.078;2024-01-16T02:02:28;3.63;;;2.33;;
20391;SDS011;10355;53.688;10.078;2024-01-16T02:05:10;4.28;;;2.40;;
20391;SDS011;10355;53.688;10.078;2024-01-16T02:07:53;4.72;;;2.47;;
20391;SDS011;10355;53.688;10.078;2024-01-16T02:10:38;4.63;;;2.20;;
20391;SDS011;10355;53.688;10.078;2024-01-16T02:13:22;3.85;;;2.40;;
20391;SDS011;10355;53.688;10.078;2024-01-16T02:16:05;4.75;;;2.50;;
20391;SDS011;10355;53.688;10.078;2024-01-16T02:18:48;3.97;;;2.42;;
20391;SDS011;10355;53.688;10.078;2024-01-16T02:21:32;4.03;;;2.80;;
20391;SDS011;10355;53.688;10.078;2024-01-16T02:24:20;3.53;;;2.40;;
20391;SDS011;10355;53.688;10.078;2024-01-16T02:27:03;3.42;;;2.40;;
20391;SDS011;10355;53.688;10.078;2024-01-16T02:29:46;4.85;;;2.25;;
20391;SDS011;10355;53.688;10.078;2024-01-16T02:32:29;4.75;;;2.42;;
20391;SDS011;10355;53.688;10.078;2024-01-16T02:35:12;3.80;;;2.33;;
20391;SDS011;10355;53.688;10.078;2024-01-16T02:37:54;4.65;;;2.50;;
20391;SDS011;10355;53.688;10.078;2024-01-16T02:40:39;3.70;;;2.42;;
20391;SDS011;10355;53.688;10.078;2024-01-16T02:43:21;5.93;;;2.33;;
20391;SDS011;10355;53.688;10.078;2024-01-16T02:46:05;2.42;;;2.05;;
20391;SDS011;10355;53.688;10.078;2024-01-16T02:48:47;3.83;;;2.15;;
20391;SDS011;10355;53.688;10.078;2024-01-16T02:51:30;4.60;;;2.33;;
20391;SDS011;10355;53.688;10.078;2024-01-16T02:54:13;4.07;;;2.20;;
20391;SDS011;10355;53.688;10.078;2024-01-16T02:56:57;2.75;;;1.88;;
20391;SDS011;10355;53.688;10.078;2024-01-16T02:59:42;2.65;;;1.90;;
20391;SDS011;10355;53.688;10.078;2024-01-16T03:02:25;3.38;;;2.13;;
20391;SDS011;10355;53.688;10.078;2024-01-16T03:05:08;3.80;;;1.90;;
20391;SDS011;10355;53.688;10.078;2024-01-16T03:07:51;3.28;;;1.90;;
20391;SDS011;10355;53.688;10.078;2024-01-16T03:10:34;3.70;;;1.90;;
20391;SDS011;10355;53.688;10.078;2024-01-16T03:13:18;2.45;;;2.03;;
20391;SDS011;10355;53.688;10.078;2024-01-16T03:16:01;4.78;;;2.13;;
20391;SDS011;10355;53.688;10.078;2024-01-16T03:18:48;3.03;;;2.05;;
20391;SDS011;10355;53.688;10.078;2024-01-16T03:21:31;2.88;;;2.13;;
20391;SDS011;10355;53.688;10.078;2024-01-16T03:24:14;3.58;;;2.60;;
20391;SDS011;10355;53.688;10.078;2024-01-16T03:26:57;8.15;;;2.65;;
20391;SDS011;10355;53.688;10.078;2024-01-16T03:29:41;4.47;;;2.80;;
20391;SDS011;10355;53.688;10.078;2024-01-16T03:32:24;4.07;;;3.00;;
20391;SDS011;10355;53.688;10.078;2024-01-16T03:35:07;4.95;;;3.00;;
20391;SDS011;10355;53.688;10.078;2024-01-16T03:37:50;4.07;;;3.05;;
20391;SDS011;10355;53.688;10.078;2024-01-16T03:40:33;4.63;;;3.25;;
20391;SDS011;10355;53.688;10.078;2024-01-16T03:43:16;4.68;;;3.00;;
20391;SDS011;10355;53.688;10.078;2024-01-16T03:46:00;4.60;;;3.08;;
20391;SDS011;10355;53.688;10.078;2024-01-16T03:48:43;3.90;;;2.90;;
20391;SDS011;10355;53.688;10.078;2024-01-16T03:51:26;4.78;;;2.90;;
20391;SDS011;10355;53.688;10.078;2024-01-16T03:54:09;3.95;;;3.10;;
20391;SDS011;10355;53.688;10.078;2024-01-16T03:56:52;3.90;;;2.92;;
20391;SDS011;10355;53.688;10.078;2024-01-16T03:59:36;4.20;;;3.05;;
20391;SDS011;10355;53.688;10.078;2024-01-16T04:02:20;4.05;;;3.00;;
20391;SDS011;10355;53.688;10.078;2024-01-16T04:05:03;5.28;;;2.95;;
20391;SDS011;10355;53.688;10.078;2024-01-16T04:07:47;3.78;;;3.08;;
20391;SDS011;10355;53.688;10.078;2024-01-16T04:10:29;4.88;;;3.20;;
20391;SDS011;10355;53.688;10.078;2024-01-16T04:13:12;3.45;;;3.15;;
20391;SDS011;10355;53.688;10.078;2024-01-16T04:15:55;4.65;;;3.13;;
20391;SDS011;10355;53.688;10.078;2024-01-16T04:18:40;3.30;;;2.92;;
20391;SDS011;10355;53.688;10.078;2024-01-16T04:21:23;4.85;;;3.17;;
20391;SDS011;10355;53.688;10.078;2024-01-16T04:24:05;4.45;;;3.05;;
20391;SDS011;10355;53.688;10.078;2024-01-16T04:26:48;3.80;;;3.17;;
20391;SDS011;10355;53.688;10.078;2024-01-16T04:29:32;5.05;;;3.45;;
20391;SDS011;10355;53.688;10.078;2024-01-16T04:32:15;3.75;;;3.25;;
20391;SDS011;10355;53.688;10.078;2024-01-16T04:35:00;4.68;;;3.40;;
20391;SDS011;10355;53.688;10.078;2024-01-16T04:37:43;4.90;;;3.33;;
20391;SDS011;10355;53.688;10.078;2024-01-16T04:40:26;4.32;;;3.30;;
20391;SDS011;10355;53.688;10.078;2024-01-16T04:43:09;5.00;;;3.30;;
20391;SDS011;10355;53.688;10.078;2024-01-16T04:45:51;5.32;;;3.30;;
20391;SDS011;10355;53.688;10.078;2024-01-16T04:48:34;3.80;;;3.15;;
20391;SDS011;10355;53.688;10.078;2024-01-16T04:51:19;4.35;;;2.90;;
20391;SDS011;10355;53.688;10.078;2024-01-16T04:54:01;4.43;;;3.10;;
20391;SDS011;10355;53.688;10.078;2024-01-16T04:56:44;4.80;;;3.40;;
20391;SDS011;10355;53.688;10.078;2024-01-16T04:59:27;4.30;;;3.08;;
20391;SDS011;10355;53.688;10.078;2024-01-16T05:02:12;4.47;;;3.40;;
20391;SDS011;10355;53.688;10.078;2024-01-16T05:04:56;5.22;;;3.45;;
20391;SDS011;10355;53.688;10.078;2024-01-16T05:07:41;4.25;;;3.00;;
20391;SDS011;10355;53.688;10.078;2024-01-16T05:10:24;4.80;;;3.08;;
20391;SDS011;10355;53.688;10.078;2024-01-16T05:13:07;4.53;;;3.15;;
20391;SDS011;10355;53.688;10.078;2024-01-16T05:15:50;4.95;;;3.10;;
20391;SDS011;10355;53.688;10.078;2024-01-16T05:18:33;5.45;;;2.92;;
20391;SDS011;10355;53.688;10.078;2024-01-16T05:21:16;4.15;;;3.35;;
20391;SDS011;10355;53.688;10.078;2024-01-16T05:24:00;3.28;;;2.85;;
20391;SDS011;10355;53.688;10.078;2024-01-16T05:26:43;4.43;;;3.08;;
20391;SDS011;10355;53.688;10.078;2024-01-16T05:29:26;4.93;;;3.10;;
20391;SDS011;10355;53.688;10.078;2024-01-16T05:32:09;4.75;;;3.10;;
20391;SDS011;10355;53.688;10.078;2024-01-16T05:34:52;6.30;;;3.33;;
20391;SDS011;10355;53.688;10.078;2024-01-16T05:37:34;4.28;;;2.70;;
20391;SDS011;10355;53.688;10.078;2024-01-16T05:40:18;4.05;;;2.97;;
20391;SDS011;10355;53.688;10.078;2024-01-16T05:43:01;4.85;;;3.03;;
20391;SDS011;10355;53.688;10.078;2024-01-16T05:45:44;5.93;;;3.28;;
20391;SDS011;10355;53.688;10.078;2024-01-16T05:48:27;4.80;;;3.13;;
20391;SDS011;10355;53.688;10.078;2024-01-16T05:51:10;3.67;;;3.00;;
20391;SDS011;10355;53.688;10.078;2024-01-16T05:53:54;4.00;;;3.00;;
20391;SDS011;10355;53.688;10.078;2024-01-16T05:56:38;4.55;;;3.22;;
20391;SDS011;10355;53.688;10.078;2024-01-16T05:59:21;6.07;;;3.28;;
20391;SDS011;10355;53.688;10.078;2024-01-16T06:02:07;4.85;;;2.85;;
20391;SDS011;10355;53.688;10.078;2024-01-16T06:04:49;4.57;;;3.05;;
20391;SDS011;10355;53.688;10.078;2024-01-16T06:07:32;2.63;;;2.10;;
20391;SDS011;10355;53.688;10.078;2024-01-16T06:10:15;3.70;;;2.28;;
20391;SDS011;10355;53.688;10.078;2024-01-16T06:12:59;3.60;;;2.25;;
20391;SDS011;10355;53.688;10.078;2024-01-16T06:15:41;3.28;;;1.90;;
20391;SDS011;10355;53.688;10.078;2024-01-16T06:18:24;3.88;;;2.38;;
20391;SDS011;10355;53.688;10.078;2024-01-16T06:21:07;4.43;;;1.95;;
20391;SDS011;10355;53.688;10.078;2024-01-16T06:23:52;2.13;;;1.80;;
20391;SDS011;10355;53.688;10.078;2024-01-16T06:26:35;2.25;;;1.60;;
20391;SDS011;10355;53.688;10.078;2024-01-16T06:29:19;2.75;;;1.58;;
20391;SDS011;10355;53.688;10.078;2024-01-16T06:32:15;1.92;;;1.30;;
20391;SDS011;10355;53.688;10.078;2024-01-16T06:34:58;4.97;;;1.65;;
20391;SDS011;10355;53.688;10.078;2024-01-16T06:37:43;1.88;;;1.20;;
20391;SDS011;10355;53.688;10.078;2024-01-16T06:40:26;3.17;;;1.30;;
20391;SDS011;10355;53.688;10.078;2024-01-16T06:43:08;3.10;;;1.20;;
20391;SDS011;10355;53.688;10.078;2024-01-16T06:45:54;2.17;;;1.00;;
20391;SDS011;10355;53.688;10.078;2024-01-16T06:48:36;1.58;;;0.88;;
20391;SDS011;10355;53.688;10.078;2024-01-16T06:51:19;2.53;;;1.00;;
20391;SDS011;10355;53.688;10.078;2024-01-16T06:54:02;2.10;;;0.85;;
20391;SDS011;10355;53.688;10.078;2024-01-16T06:56:46;2.00;;;0.90;;
20391;SDS011;10355;53.688;10.078;2024-01-16T06:59:30;1.75;;;1.05;;
20391;SDS011;10355;53.688;10.078;2024-01-16T07:02:14;2.17;;;1.10;;
20391;SDS011;10355;53.688;10.078;2024-01-16T07:04:57;2.15;;;0.80;;
20391;SDS011;10355;53.688;10.078;2024-01-16T07:07:41;2.42;;;0.90;;
20391;SDS011;10355;53.688;10.078;2024-01-16T07:10:24;1.75;;;0.80;;
20391;SDS011;10355;53.688;10.078;2024-01-16T07:13:06;1.13;;;0.75;;
20391;SDS011;10355;53.688;10.078;2024-01-16T07:15:50;2.22;;;1.00;;
20391;SDS011;10355;53.688;10.078;2024-01-16T07:18:34;1.42;;;0.80;;
20391;SDS011;10355;53.688;10.078;2024-01-16T07:21:17;5.20;;;1.00;;
20391;SDS011;10355;53.688;10.078;2024-01-16T07:23:59;2.85;;;1.10;;
20391;SDS011;10355;53.688;10.078;2024-01-16T07:26:42;3.22;;;1.02;;
20391;SDS011;10355;53.688;10.078;2024-01-16T07:29:25;1.50;;;0.90;;
20391;SDS011;10355;53.688;10.078;2024-01-16T07:32:08;2.72;;;1.10;;
20391;SDS011;10355;53.688;10.078;2024-01-16T07:34:54;3.25;;;1.20;;
20391;SDS011;10355;53.688;10.078;2024-01-16T07:37:36;2.88;;;1.05;;
20391;SDS011;10355;53.688;10.078;2024-01-16T07:40:19;2.70;;;1.20;;
20391;SDS011;10355;53.688;10.078;2024-01-16T07:43:02;2.40;;;1.30;;
20391;SDS011;10355;53.688;10.078;2024-01-16T07:45:45;2.35;;;1.27;;
20391;SDS011;10355;53.688;10.078;2024-01-16T07:48:27;2.22;;;1.27;;
20391;SDS011;10355;53.688;10.078;2024-01-16T07:51:12;2.10;;;1.13;;
20391;SDS011;10355;53.688;10.078;2024-01-16T07:54:04;3.47;;;1.10;;
20391;SDS011;10355;53.688;10.078;2024-01-16T07:56:46;3.10;;;1.15;;
20391;SDS011;10355;53.688;10.078;2024-01-16T07:59:29;1.77;;;1.10;;
20391;SDS011;10355;53.688;10.078;2024-01-16T08:02:13;1.48;;;0.82;;
20391;SDS011;10355;53.688;10.078;2024-01-16T08:04:56;2.15;;;1.00;;
20391;SDS011;10355;53.688;10.078;2024-01-16T08:07:40;1.67;;;0.95;;
20391;SDS011;10355;53.688;10.078;2024-01-16T08:10:24;1.20;;;0.70;;
20391;SDS011;10355;53.688;10.078;2024-01-16T08:13:07;1.90;;;0.90;;
20391;SDS011;10355;53.688;10.078;2024-01-16T08:15:50;2.83;;;0.90;;
20391;SDS011;10355;53.688;10.078;2024-01-16T08:18:33;1.50;;;0.82;;
20391;SDS011;10355;53.688;10.078;2024-01-16T08:21:16;1.25;;;0.80;;
20391;SDS011;10355;53.688;10.078;2024-01-16T08:24:00;1.40;;;0.98;;
20391;SDS011;10355;53.688;10.078;2024-01-16T08:26:43;2.25;;;0.98;;
20391;SDS011;10355;53.688;10.078;2024-01-16T08:29:26;1.42;;;0.80;;
20391;SDS011;10355;53.688;10.078;2024-01-16T08:32:09;3.15;;;1.10;;
20391;SDS011;10355;53.688;10.078;2024-01-16T08:34:52;3.83;;;1.15;;
20391;SDS011;10355;53.688;10.078;2024-01-16T08:37:34;2.20;;;1.00;;
20391;SDS011;10355;53.688;10.078;2024-01-16T08:40:19;1.95;;;1.05;;
20391;SDS011;10355;53.688;10.078;2024-01-16T08:43:01;2.75;;;1.00;;
20391;SDS011;10355;53.688;10.078;2024-01-16T08:45:45;2.53;;;1.10;;
20391;SDS011;10355;53.688;10.078;2024-01-16T08:48:29;0.82;;;0.73;;
20391;SDS011;10355;53.688;10.078;2024-01-16T08:51:12;0.82;;;0.70;;
20391;SDS011;10355;53.688;10.078;2024-01-16T08:53:55;2.25;;;0.90;;
20391;SDS011;10355;53.688;10.078;2024-01-16T08:56:39;2.10;;;0.90;;
20391;SDS011;10355;53.688;10.078;2024-01-16T08:59:22;1.33;;;0.90;;
20391;SDS011;10355;53.688;10.078;2024-01-16T09:02:05;1.85;;;0.93;;
20391;SDS011;10355;53.688;10.078;2024-01-16T09:04:48;1.70;;;0.90;;
20391;SDS011;10355;53.688;10.078;2024-01-16T09:07:32;1.52;;;0.85;;
20391;SDS011;10355;53.688;10.078;2024-01-16T09:10:15;1.80;;;1.00;;
20391;SDS011;10355;53.688;10.078;2024-01-16T09:12:59;1.40;;;0.90;;
20391;SDS011;10355;53.688;10.078;2024-01-16T09:15:42;1.92;;;0.82;;
20391;SDS011;10355;53.688;10.078;2024-01-16T09:18:25;1.77;;;1.00;;
20391;SDS011;10355;53.688;10.078;2024-01-16T09:21:08;2.60;;;0.90;;
20391;SDS011;10355;53.688;10.078;2024-01-16T09:23:51;1.30;;;0.80;;
20391;SDS011;10355;53.688;10.078;2024-01-16T09:26:34;1.85;;;1.02;;
20391;SDS011;10355;53.688;10.078;2024-01-16T09:29:19;2.88;;;1.10;;
20391;SDS011;10355;53.688;10.078;2024-01-16T09:32:03;2.38;;;0.90;;
20391;SDS011;10355;53.688;10.078;2024-01-16T09:34:46;1.50;;;0.82;;
20391;SDS011;10355;53.688;10.078;2024-01-16T09:37:28;1.75;;;0.82;;
20391;SDS011;10355;53.688;10.078;2024-01-16T09:40:11;4.72;;;1.02;;
20391;SDS011;10355;53.688;10.078;2024-01-16T09:42:55;1.30;;;0.82;;
20391;SDS011;10355;53.688;10.078;2024-01-16T09:45:39;2.42;;;1.00;;
20391;SDS011;10355;53.688;10.078;2024-01-16T09:48:22;2.22;;;0.88;;
20391;SDS011;10355;53.688;10.078;2024-01-16T09:51:05;2.88;;;1.00;;
20391;SDS011;10355;53.688;10.078;2024-01-16T09:53:48;2.53;;;1.00;;
20391;SDS011;10355;53.688;10.078;2024-01-16T09:56:31;3.72;;;1.10;;
20391;SDS011;10355;53.688;10.078;2024-01-16T09:59:16;2.42;;;0.85;;
20391;SDS011;10355;53.688;10.078;2024-01-16T10:02:01;3.10;;;1.08;;
20391;SDS011;10355;53.688;10.078;2024-01-16T10:04:48;3.70;;;1.00;;
20391;SDS011;10355;53.688;10.078;2024-01-16T10:07:31;0.75;;;0.68;;
20391;SDS011;10355;53.688;10.078;2024-01-16T10:10:15;0.98;;;0.82;;
20391;SDS011;10355;53.688;10.078;2024-01-16T10:13:10;3.47;;;0.85;;
20391;SDS011;10355;53.688;10.078;2024-01-16T10:15:54;1.88;;;0.88;;
20391;SDS011;10355;53.688;10.078;2024-01-16T10:18:38;2.13;;;0.73;;
20391;SDS011;10355;53.688;10.078;2024-01-16T10:21:22;3.40;;;0.90;;
20391;SDS011;10355;53.688;10.078;2024-01-16T10:24:10;1.85;;;0.90;;
20391;SDS011;10355;53.688;10.078;2024-01-16T10:26:57;2.53;;;0.90;;
20391;SDS011;10355;53.688;10.078;2024-01-16T10:29:41;0.98;;;0.80;;
20391;SDS011;10355;53.688;10.078;2024-01-16T10:32:37;4.20;;;1.00;;
20391;SDS011;10355;53.688;10.078;2024-01-16T10:35:22;1.73;;;0.98;;
20391;SDS011;10355;53.688;10.078;2024-01-16T10:38:05;1.48;;;0.80;;
20391;SDS011;10355;53.688;10.078;2024-01-16T10:40:47;3.75;;;0.90;;
20391;SDS011;10355;53.688;10.078;2024-01-16T10:43:30;2.45;;;0.77;;
20391;SDS011;10355;53.688;10.078;2024-01-16T10:46:13;2.22;;;0.88;;
20391;SDS011;10355;53.688;10.078;2024-01-16T10:49:00;4.57;;;0.95;;
20391;SDS011;10355;53.688;10.078;2024-01-16T10:51:45;2.63;;;0.90;;
20391;SDS011;10355;53.688;10.078;2024-01-16T10:54:28;2.08;;;0.82;;
20391;SDS011;10355;53.688;10.078;2024-01-16T10:57:11;2.10;;;0.82;;
20391;SDS011;10355;53.688;10.078;2024-01-16T10:59:56;3.72;;;0.75;;
20391;SDS011;10355;53.688;10.078;2024-01-16T11:02:49;3.00;;;0.77;;
20391;SDS011;10355;53.688;10.078;2024-01-16T11:05:33;1.00;;;0.68;;
20391;SDS011;10355;53.688;10.078;2024-01-16T11:08:17;4.18;;;0.80;;
20391;SDS011;10355;53.688;10.078;2024-01-16T11:11:02;2.33;;;0.70;;
20391;SDS011;10355;53.688;10.078;2024-01-16T11:13:46;2.70;;;0.63;;
20391;SDS011;10355;53.688;10.078;2024-01-16T11:16:29;3.13;;;0.95;;
20391;SDS011;10355;53.688;10.078;2024-01-16T11:19:13;5.18;;;1.02;;
20391;SDS011;10355;53.688;10.078;2024-01-16T11:22:16;2.88;;;0.85;;
20391;SDS011;10355;53.688;10.078;2024-01-16T11:25:08;1.63;;;0.80;;
20391;SDS011;10355;53.688;10.078;2024-01-16T11:27:51;2.40;;;0.70;;
20391;SDS011;10355;53.688;10.078;2024-01-16T11:30:34;3.40;;;0.80;;
20391;SDS011;10355;53.688;10.078;2024-01-16T11:33:41;3.90;;;0.80;;
20391;SDS011;10355;53.688;10.078;2024-01-16T11:36:45;1.67;;;0.73;;
20391;SDS011;10355;53.688;10.078;2024-01-16T11:39:30;2.33;;;0.80;;
20391;SDS011;10355;53.688;10.078;2024-01-16T11:42:14;2.05;;;0.88;;
20391;SDS011;10355;53.688;10.078;2024-01-16T11:45:08;3.22;;;1.02;;
20391;SDS011;10355;53.688;10.078;2024-01-16T11:47:58;3.15;;;0.80;;
20391;SDS011;10355;53.688;10.078;2024-01-16T11:50:50;3.00;;;0.82;;
20391;SDS011;10355;53.688;10.078;2024-01-16T11:53:34;3.75;;;0.90;;
20391;SDS011;10355;53.688;10.078;2024-01-16T11:56:38;3.42;;;0.82;;
20391;SDS011;10355;53.688;10.078;2024-01-16T11:59:38;2.60;;;0.90;;
20391;SDS011;10355;53.688;10.078;2024-01-16T12:02:23;1.88;;;0.77;;
20391;SDS011;10355;53.688;10.078;2024-01-16T12:05:10;4.57;;;0.90;;
20391;SDS011;10355;53.688;10.078;2024-01-16T12:07:53;2.25;;;0.90;;
20391;SDS011;10355;53.688;10.078;2024-01-16T12:10:45;4.05;;;0.88;;
20391;SDS011;10355;53.688;10.078;2024-01-16T12:13:28;1.38;;;0.80;;
20391;SDS011;10355;53.688;10.078;2024-01-16T12:16:19;2.08;;;0.60;;
20391;SDS011;10355;53.688;10.078;2024-01-16T12:19:05;2.35;;;0.75;;
20391;SDS011;10355;53.688;10.078;2024-01-16T12:21:49;3.25;;;0.90;;
20391;SDS011;10355;53.688;10.078;2024-01-16T12:24:32;1.30;;;0.80;;
20391;SDS011;10355;53.688;10.078;2024-01-16T12:27:17;2.95;;;1.10;;
20391;SDS011;10355;53.688;10.078;2024-01-16T12:30:06;1.85;;;0.80;;
20391;SDS011;10355;53.688;10.078;2024-01-16T12:32:50;3.05;;;1.00;;
20391;SDS011;10355;53.688;10.078;2024-01-16T12:35:48;5.25;;;0.95;;
20391;SDS011;10355;53.688;10.078;2024-01-16T12:38:31;1.85;;;0.80;;
20391;SDS011;10355;53.688;10.078;2024-01-16T12:41:14;3.67;;;1.08;;
20391;SDS011;10355;53.688;10.078;2024-01-16T12:44:02;2.85;;;1.10;;
20391;SDS011;10355;53.688;10.078;2024-01-16T12:46:55;2.55;;;0.93;;
20391;SDS011;10355;53.688;10.078;2024-01-16T12:49:41;2.33;;;1.13;;
20391;SDS011;10355;53.688;10.078;2024-01-16T12:52:25;2.33;;;0.90;;
20391;SDS011;10355;53.688;10.078;2024-01-16T12:55:08;4.15;;;0.90;;
20391;SDS011;10355;53.688;10.078;2024-01-16T13:00:49;4.10;;;0.80;;
20391;SDS011;10355;53.688;10.078;2024-01-16T13:03:33;1.95;;;0.70;;
20391;SDS011;10355;53.688;10.078;2024-01-16T13:06:18;6.78;;;1.10;;
20391;SDS011;10355;53.688;10.078;2024-01-16T13:09:05;2.72;;;0.73;;
20391;SDS011;10355;53.688;10.078;2024-01-16T13:11:51;1.58;;;0.70;;
20391;SDS011;10355;53.688;10.078;2024-01-16T13:14:37;2.72;;;0.80;;
20391;SDS011;10355;53.688;10.078;2024-01-16T13:17:20;4.90;;;0.80;;
20391;SDS011;10355;53.688;10.078;2024-01-16T13:20:03;2.72;;;0.85;;
20391;SDS011;10355;53.688;10.078;2024-01-16T13:22:50;5.63;;;0.85;;
20391;SDS011;10355;53.688;10.078;2024-01-16T13:25:33;2.55;;;0.90;;
20391;SDS011;10355;53.688;10.078;2024-01-16T13:28:16;2.70;;;1.02;;
20391;SDS011;10355;53.688;10.078;2024-01-16T13:30:59;2.80;;;1.00;;
20391;SDS011;10355;53.688;10.078;2024-01-16T13:33:42;3.88;;;1.00;;
20391;SDS011;10355;53.688;10.078;2024-01-16T13:36:26;2.22;;;1.02;;
20391;SDS011;10355;53.688;10.078;2024-01-16T13:39:30;2.58;;;0.90;;
20391;SDS011;10355;53.688;10.078;2024-01-16T13:42:18;3.72;;;0.98;;
20391;SDS011;10355;53.688;10.078;2024-01-16T13:45:01;2.08;;;0.93;;
20391;SDS011;10355;53.688;10.078;2024-01-16T13:47:45;3.88;;;1.05;;
20391;SDS011;10355;53.688;10.078;2024-01-16T13:50:30;1.60;;;0.80;;
20391;SDS011;10355;53.688;10.078;2024-01-16T13:53:13;3.60;;;0.98;;
20391;SDS011;10355;53.688;10.078;2024-01-16T13:55:57;1.80;;;0.90;;
20391;SDS011;10355;53.688;10.078;2024-01-16T13:58:41;3.25;;;1.08;;
20391;SDS011;10355;53.688;10.078;2024-01-16T14:01:23;4.10;;;0.95;;
20391;SDS011;10355;53.688;10.078;2024-01-16T14:04:07;3.72;;;1.17;;
20391;SDS011;10355;53.688;10.078;2024-01-16T14:06:50;1.40;;;0.90;;
20391;SDS011;10355;53.688;10.078;2024-01-16T14:09:53;1.52;;;0.90;;
20391;SDS011;10355;53.688;10.078;2024-01-16T14:12:37;2.90;;;0.95;;
20391;SDS011;10355;53.688;10.078;2024-01-16T14:15:20;2.38;;;1.10;;
20391;SDS011;10355;53.688;10.078;2024-01-16T14:18:05;3.55;;;0.95;;
20391;SDS011;10355;53.688;10.078;2024-01-16T14:20:47;4.25;;;1.08;;
20391;SDS011;10355;53.688;10.078;2024-01-16T14:23:30;1.55;;;0.85;;
20391;SDS011;10355;53.688;10.078;2024-01-16T14:26:13;2.58;;;1.00;;
20391;SDS011;10355;53.688;10.078;2024-01-16T14:28:58;2.25;;;1.00;;
20391;SDS011;10355;53.688;10.078;2024-01-16T14:31:41;3.60;;;1.13;;
20391;SDS011;10355;53.688;10.078;2024-01-16T14:34:25;5.72;;;1.23;;
20391;SDS011;10355;53.688;10.078;2024-01-16T14:37:09;5.35;;;1.50;;
20391;SDS011;10355;53.688;10.078;2024-01-16T14:39:53;2.10;;;1.10;;
20391;SDS011;10355;53.688;10.078;2024-01-16T14:42:35;3.40;;;1.20;;
20391;SDS011;10355;53.688;10.078;2024-01-16T14:45:20;2.25;;;1.00;;
20391;SDS011;10355;53.688;10.078;2024-01-16T14:48:03;1.88;;;1.13;;
20391;SDS011;10355;53.688;10.078;2024-01-16T14:50:47;3.47;;;1.20;;
20391;SDS011;10355;53.688;10.078;2024-01-16T14:53:30;3.50;;;1.35;;
20391;SDS011;10355;53.688;10.078;2024-01-16T14:56:13;5.45;;;1.40;;
20391;SDS011;10355;53.688;10.078;2024-01-16T14:58:56;5.18;;;1.38;;
20391;SDS011;10355;53.688;10.078;2024-01-16T15:01:42;4.55;;;1.35;;
20391;SDS011;10355;53.688;10.078;2024-01-16T15:04:26;4.97;;;1.20;;
20391;SDS011;10355;53.688;10.078;2024-01-16T15:07:09;7.00;;;1.40;;
20391;SDS011;10355;53.688;10.078;2024-01-16T15:09:52;3.17;;;1.40;;
20391;SDS011;10355;53.688;10.078;2024-01-16T15:12:34;2.10;;;1.00;;
20391;SDS011;10355;53.688;10.078;2024-01-16T15:15:18;2.83;;;1.33;;
20391;SDS011;10355;53.688;10.078;2024-01-16T15:18:02;2.55;;;1.30;;
20391;SDS011;10355;53.688;10.078;2024-01-16T15:20:45;1.92;;;1.13;;
20391;SDS011;10355;53.688;10.078;2024-01-16T15:23:28;2.85;;;1.27;;
20391;SDS011;10355;53.688;10.078;2024-01-16T15:26:10;2.78;;;1.48;;
20391;SDS011;10355;53.688;10.078;2024-01-16T15:29:00;3.28;;;1.20;;
20391;SDS011;10355;53.688;10.078;2024-01-16T15:31:43;3.97;;;1.75;;
20391;SDS011;10355;53.688;10.078;2024-01-16T15:34:27;3.50;;;1.42;;
20391;SDS011;10355;53.688;10.078;2024-01-16T15:37:10;4.05;;;1.42;;
20391;SDS011;10355;53.688;10.078;2024-01-16T15:39:53;2.75;;;1.30;;
20391;SDS011;10355;53.688;10.078;2024-01-16T15:42:35;2.42;;;1.30;;
20391;SDS011;10355;53.688;10.078;2024-01-16T15:45:20;2.45;;;1.35;;
20391;SDS011;10355;53.688;10.078;2024-01-16T15:48:07;3.38;;;1.20;;
20391;SDS011;10355;53.688;10.078;2024-01-16T15:50:52;4.22;;;1.50;;
20391;SDS011;10355;53.688;10.078;2024-01-16T15:53:35;2.47;;;1.30;;
20391;SDS011;10355;53.688;10.078;2024-01-16T15:56:18;3.95;;;1.40;;
20391;SDS011;10355;53.688;10.078;2024-01-16T15:59:00;2.28;;;1.45;;
20391;SDS011;10355;53.688;10.078;2024-01-16T16:01:43;2.40;;;1.45;;
20391;SDS011;10355;53.688;10.078;2024-01-16T16:04:26;3.90;;;1.60;;
20391;SDS011;10355;53.688;10.078;2024-01-16T16:07:10;3.80;;;1.58;;
20391;SDS011;10355;53.688;10.078;2024-01-16T16:09:54;3.30;;;1.70;;
20391;SDS011;10355;53.688;10.078;2024-01-16T16:12:37;2.25;;;1.58;;
20391;SDS011;10355;53.688;10.078;2024-01-16T16:15:20;3.90;;;1.80;;
20391;SDS011;10355;53.688;10.078;2024-01-16T16:18:03;1.98;;;1.52;;